Terminal Aerodrome Forecast
Issued by NWS Mt. Holly, NJ

Current Version | Previous Version | Text Only | Print | Product List | Glossary On
Versions: 1 2 3 4 5 6 7 8 9 10 11 12 13 14 15 16 17 18 19 20 21 22 23 24 25 26 27 28 29 30 31 32 33 34
000
FTAK31 PANC 231818 AAA
TAFABE
TAF AMD
PABE 231818Z 2318/2418 16020G30KT P6SM VCSH SCT050 BKN120
      WS020/19055KT
     FM232000 16020G30KT P6SM -RA SCT010 BKN025 OVC050 WS020/19065KT
     FM232200 17022G35KT 5SM -RA BR OVC012 WS020/19065KT
     FM240200 19018G25KT P6SM -RA SCT012 OVC020
     FM240800 19012KT P6SM VCFG BKN012 BKN020
     FM241200 19012KT 3SM BR SCT008 BKN012=

USA.gov is the U.S. government's official web portal to all federal, state and local government web resources and services.